createdAt,value
2022-12-29T00:01:02.462Z,70.93
2022-12-29T00:03:31.249Z,59.83
2022-12-29T00:06:00.159Z,41.67
2022-12-29T00:08:28.459Z,50.25
2022-12-29T00:10:56.800Z,62.97
2022-12-29T00:13:25.218Z,78.35
2022-12-29T00:15:53.463Z,86.35
2022-12-29T00:18:21.835Z,85.38
2022-12-29T00:20:50.219Z,65.70
2022-12-29T00:23:18.494Z,39.72
2022-12-29T00:25:48.077Z,24.40
2022-12-29T00:28:16.452Z,20.15
2022-12-29T00:30:46.559Z,21.55
2022-12-29T00:33:19.456Z,23.02
2022-12-29T00:35:54.102Z,44.05
2022-12-29T00:38:23.608Z,61.17
2022-12-29T00:40:51.890Z,72.40
2022-12-29T00:43:20.312Z,63.85
2022-12-29T00:45:51.123Z,42.55
2022-12-29T00:48:19.508Z,23.10
2022-12-29T00:50:47.875Z,22.15
2022-12-29T00:53:16.900Z,26.73
2022-12-29T00:55:46.487Z,29.83
2022-12-29T00:58:14.758Z,28.33
2022-12-29T01:00:43.114Z,32.63
2022-12-29T01:03:11.573Z,33.00
2022-12-29T01:05:40.070Z,32.15
2022-12-29T01:08:09.433Z,33.97
2022-12-29T01:10:37.670Z,31.77
2022-12-29T01:13:06.232Z,41.20
2022-12-29T01:15:34.388Z,53.88
2022-12-29T01:18:02.833Z,75.88
2022-12-29T01:20:31.943Z,64.40
2022-12-29T01:23:00.220Z,37.47
2022-12-29T01:25:28.610Z,30.70
2022-12-29T01:27:58.007Z,23.48
2022-12-29T01:30:27.509Z,23.65
2022-12-29T01:32:55.872Z,20.58
2022-12-29T01:35:24.334Z,21.85
2022-12-29T01:37:52.560Z,37.13
2022-12-29T01:40:22.085Z,36.90
2022-12-29T01:42:50.865Z,46.42
2022-12-29T01:45:19.964Z,47.85
2022-12-29T01:47:59.599Z,48.58
2022-12-29T01:50:33.796Z,28.75
2022-12-29T01:53:05.082Z,25.42
2022-12-29T01:55:41.062Z,45.00
2022-12-29T01:58:13.595Z,41.75
2022-12-29T02:00:42.016Z,36.10
2022-12-29T02:03:11.030Z,41.05
2022-12-29T02:05:42.237Z,36.35
2022-12-29T02:08:15.338Z,37.60
2022-12-29T02:10:46.359Z,38.65
2022-12-29T02:13:18.293Z,34.92
2022-12-29T02:16:40.613Z,39.80
2022-12-29T02:19:33.667Z,37.72
2022-12-29T02:22:28.113Z,37.10
2022-12-29T02:25:15.098Z,35.00
2022-12-29T02:27:49.547Z,34.88
2022-12-29T02:30:51.698Z,32.30
2022-12-29T02:33:49.266Z,29.02
2022-12-29T02:36:45.928Z,38.22
2022-12-29T02:39:43.588Z,31.98
2022-12-29T02:42:35.397Z,30.92
2022-12-29T02:45:23.434Z,31.85
2022-12-29T02:48:23.985Z,36.65
2022-12-29T02:51:05.428Z,36.92
2022-12-29T02:53:36.296Z,35.93
2022-12-29T02:56:04.629Z,32.50
2022-12-29T02:58:32.693Z,29.45
2022-12-29T03:01:13.287Z,41.80
2022-12-29T03:04:01.252Z,52.60
2022-12-29T03:06:36.836Z,67.93
2022-12-29T03:09:18.882Z,64.70
2022-12-29T03:12:00.997Z,42.60
2022-12-29T03:14:41.169Z,29.60
2022-12-29T03:17:19.372Z,31.50
2022-12-29T03:19:52.860Z,30.52
2022-12-29T03:22:26.947Z,32.88
2022-12-29T03:25:29.490Z,34.45
2022-12-29T03:28:10.041Z,34.45
2022-12-29T03:30:44.535Z,40.10
2022-12-29T03:33:20.090Z,44.00
2022-12-29T03:35:52.037Z,53.63
2022-12-29T03:38:26.402Z,56.88
2022-12-29T03:40:59.743Z,57.40
2022-12-29T03:43:31.120Z,64.15
2022-12-29T03:45:59.534Z,55.97
2022-12-29T03:48:27.677Z,31.67
2022-12-29T03:50:58.243Z,32.70
2022-12-29T03:53:26.530Z,31.45
2022-12-29T03:55:54.885Z,30.35
2022-12-29T03:58:24.467Z,33.42
2022-12-29T04:01:02.374Z,37.55
2022-12-29T04:03:34.126Z,33.45
2022-12-29T04:06:02.944Z,32.83
2022-12-29T04:08:39.020Z,31.02
2022-12-29T04:11:07.955Z,30.85
2022-12-29T04:13:36.144Z,30.65
2022-12-29T04:16:04.639Z,31.00
2022-12-29T04:18:34.464Z,31.88
2022-12-29T04:21:02.785Z,29.70
2022-12-29T04:23:34.706Z,31.08
2022-12-29T04:26:05.737Z,32.38
2022-12-29T04:28:34.968Z,31.55
2022-12-29T04:31:38.558Z,31.75
2022-12-29T04:34:08.107Z,29.85
2022-12-29T04:36:36.530Z,28.95
2022-12-29T04:39:04.921Z,29.98
2022-12-29T04:41:34.568Z,31.83
2022-12-29T04:44:03.499Z,32.17
2022-12-29T04:46:40.495Z,32.90
2022-12-29T04:49:11.964Z,31.48
2022-12-29T04:52:15.196Z,31.80
2022-12-29T04:54:46.061Z,33.25
2022-12-29T04:57:19.508Z,35.80
2022-12-29T04:59:53.310Z,38.42
2022-12-29T05:02:21.928Z,36.10
2022-12-29T05:04:51.921Z,34.50
2022-12-29T05:07:21.169Z,33.70
2022-12-29T05:09:50.458Z,33.92
2022-12-29T05:12:18.685Z,34.60
2022-12-29T05:15:01.288Z,37.88
2022-12-29T05:17:30.105Z,36.00
2022-12-29T05:19:58.421Z,36.72
2022-12-29T05:22:27.195Z,37.13
2022-12-29T05:24:57.132Z,36.25
2022-12-29T05:27:25.983Z,37.20
2022-12-29T05:30:03.914Z,38.83
2022-12-29T05:32:32.301Z,37.75
2022-12-29T05:35:01.463Z,31.23
2022-12-29T05:37:30.729Z,27.23
2022-12-29T05:39:58.907Z,30.67
2022-12-29T05:42:27.191Z,31.00
2022-12-29T05:45:16.364Z,29.20
2022-12-29T05:48:05.348Z,31.58
2022-12-29T05:50:53.799Z,34.97
2022-12-29T05:53:26.760Z,29.75
2022-12-29T05:55:55.143Z,21.88
2022-12-29T05:58:23.396Z,20.35
2022-12-29T06:00:53.370Z,19.67
2022-12-29T06:03:21.870Z,20.63
2022-12-29T06:05:50.230Z,16.85
2022-12-29T06:08:18.718Z,17.65
2022-12-29T06:10:47.002Z,17.38
2022-12-29T06:13:15.588Z,17.25
2022-12-29T06:15:46.312Z,19.75
2022-12-29T06:18:19.663Z,18.13
2022-12-29T06:20:49.241Z,20.05
2022-12-29T06:23:19.768Z,23.80
2022-12-29T06:25:49.623Z,19.60
2022-12-29T06:28:18.473Z,20.08
2022-12-29T06:30:47.538Z,18.73
2022-12-29T06:33:16.052Z,19.35
2022-12-29T06:35:46.464Z,20.38
2022-12-29T06:38:16.403Z,21.05
2022-12-29T06:40:45.312Z,18.92
2022-12-29T06:43:32.013Z,19.00
2022-12-29T06:46:10.139Z,20.80
2022-12-29T06:48:38.493Z,19.20
2022-12-29T06:51:06.891Z,24.02
2022-12-29T06:53:34.998Z,25.20
2022-12-29T06:56:03.185Z,25.55
2022-12-29T06:58:31.529Z,27.17
2022-12-29T07:00:59.957Z,25.95
2022-12-29T07:03:28.363Z,26.15
2022-12-29T07:05:56.816Z,32.85
2022-12-29T07:08:25.179Z,30.60
2022-12-29T07:10:53.727Z,32.38
2022-12-29T07:13:21.925Z,26.77
2022-12-29T07:15:50.004Z,36.83
2022-12-29T07:18:18.341Z,31.70
2022-12-29T07:20:46.563Z,29.95
2022-12-29T07:23:14.622Z,22.08
2022-12-29T07:25:42.967Z,23.55
2022-12-29T07:28:11.159Z,22.85
2022-12-29T07:30:39.780Z,24.27
2022-12-29T07:33:08.084Z,27.55
2022-12-29T07:35:36.858Z,29.92
2022-12-29T07:38:05.082Z,27.25
2022-12-29T07:40:33.317Z,20.80
2022-12-29T07:43:01.583Z,19.88
2022-12-29T07:45:40.397Z,25.17
2022-12-29T07:48:11.734Z,24.30
2022-12-29T07:50:40.105Z,23.27
2022-12-29T07:53:08.255Z,28.95
2022-12-29T07:55:36.565Z,37.90
2022-12-29T07:58:05.159Z,32.10
2022-12-29T08:00:33.521Z,36.08
2022-12-29T08:03:02.339Z,58.50
2022-12-29T08:05:31.835Z,40.88
2022-12-29T08:07:59.861Z,34.28
2022-12-29T08:10:28.297Z,23.60
2022-12-29T08:12:56.649Z,19.98
2022-12-29T08:15:30.517Z,30.65
2022-12-29T08:18:00.894Z,27.15
2022-12-29T08:20:29.147Z,21.73
2022-12-29T08:22:57.425Z,21.23
2022-12-29T08:25:25.741Z,18.77
2022-12-29T08:27:54.061Z,18.20
2022-12-29T08:30:22.490Z,17.83
2022-12-29T08:32:50.595Z,20.58
2022-12-29T08:35:18.896Z,23.42
2022-12-29T08:37:47.121Z,21.02
2022-12-29T08:40:15.498Z,22.35
2022-12-29T08:42:44.847Z,22.52
2022-12-29T08:45:13.316Z,21.02
2022-12-29T08:47:41.831Z,26.30
2022-12-29T08:50:10.236Z,24.80
2022-12-29T08:52:38.423Z,34.25
2022-12-29T08:55:06.990Z,19.60
2022-12-29T08:57:35.449Z,20.75
2022-12-29T09:00:09.315Z,17.50
2022-12-29T09:02:38.330Z,17.42
2022-12-29T09:05:27.060Z,16.13
2022-12-29T09:07:55.388Z,19.42
2022-12-29T09:10:23.727Z,17.77
2022-12-29T09:12:52.050Z,17.30
2022-12-29T09:15:20.451Z,16.35
2022-12-29T09:17:48.761Z,20.25
2022-12-29T09:20:21.107Z,18.70
2022-12-29T09:22:49.670Z,16.88
2022-12-29T09:25:18.227Z,17.95
2022-12-29T09:27:46.458Z,16.20
2022-12-29T09:30:15.131Z,18.05
2022-12-29T09:32:45.232Z,16.45
2022-12-29T09:35:16.292Z,30.13
2022-12-29T09:37:44.973Z,20.00
2022-12-29T09:40:34.157Z,19.15
2022-12-29T09:43:17.461Z,17.25
2022-12-29T09:46:11.524Z,15.43
2022-12-29T09:48:48.528Z,15.93
2022-12-29T09:51:23.731Z,15.15
2022-12-29T09:54:33.639Z,15.10
2022-12-29T09:57:01.980Z,14.68
2022-12-29T09:59:42.149Z,14.00
2022-12-29T10:02:30.795Z,97.38
2022-12-29T10:05:00.131Z,36.00
2022-12-29T10:07:47.056Z,17.70
2022-12-29T10:10:41.415Z,16.40
2022-12-29T10:13:39.036Z,18.52
2022-12-29T10:16:25.720Z,20.70
2022-12-29T10:19:18.529Z,19.02
2022-12-29T10:22:09.012Z,25.40
2022-12-29T10:24:41.123Z,20.77
2022-12-29T10:27:15.154Z,17.25
2022-12-29T10:29:50.538Z,19.42
2022-12-29T10:32:28.743Z,15.40
2022-12-29T10:35:01.685Z,15.30
2022-12-29T10:37:52.053Z,15.50
2022-12-29T10:40:31.521Z,15.93
2022-12-29T10:43:00.459Z,14.80
2022-12-29T10:45:32.455Z,12.75
2022-12-29T10:48:17.633Z,28.70
2022-12-29T10:50:46.039Z,15.82
2022-12-29T10:53:22.859Z,16.33
2022-12-29T10:55:52.003Z,13.88
2022-12-29T10:58:21.059Z,14.27
2022-12-29T11:00:54.960Z,13.43
2022-12-29T11:03:42.329Z,16.17
2022-12-29T11:06:20.124Z,14.85
2022-12-29T11:09:01.067Z,14.13
2022-12-29T11:11:35.529Z,14.85
2022-12-29T11:14:23.219Z,16.83
2022-12-29T11:17:03.219Z,16.85
2022-12-29T11:19:40.471Z,14.25
2022-12-29T11:22:24.090Z,12.32
2022-12-29T11:24:54.199Z,15.35
2022-12-29T11:27:27.896Z,14.00
2022-12-29T11:29:56.734Z,12.65
2022-12-29T11:32:30.302Z,13.38
2022-12-29T11:35:00.022Z,16.40
2022-12-29T11:37:41.866Z,14.45
2022-12-29T11:42:57.363Z,12.38
2022-12-29T11:45:34.892Z,12.15
2022-12-29T11:48:18.222Z,14.52
2022-12-29T11:50:54.526Z,14.73
2022-12-29T11:53:25.296Z,15.20
2022-12-29T11:56:38.331Z,12.93
2022-12-29T11:59:30.059Z,12.27
2022-12-29T12:02:00.568Z,13.90
2022-12-29T12:04:35.818Z,12.63
2022-12-29T12:07:18.711Z,14.20
2022-12-29T12:10:04.932Z,13.77
2022-12-29T12:12:42.980Z,13.98
2022-12-29T12:15:24.788Z,13.15
2022-12-29T12:18:10.322Z,14.73
2022-12-29T12:20:51.586Z,15.70
2022-12-29T12:23:50.594Z,14.27
2022-12-29T12:26:31.691Z,16.27
2022-12-29T12:29:10.964Z,16.53
2022-12-29T12:32:04.526Z,13.95
2022-12-29T12:34:40.765Z,14.85
2022-12-29T12:37:18.227Z,16.65
2022-12-29T12:40:17.176Z,25.33
2022-12-29T12:43:07.706Z,14.65
2022-12-29T12:45:44.827Z,11.82
2022-12-29T12:48:31.311Z,16.30
2022-12-29T12:51:33.104Z,14.55
2022-12-29T12:54:34.876Z,20.67
2022-12-29T12:57:34.061Z,12.45
2022-12-29T13:00:12.759Z,26.23
2022-12-29T13:03:20.162Z,17.77
2022-12-29T13:06:17.715Z,15.02
2022-12-29T13:09:04.603Z,14.55
2022-12-29T13:11:45.159Z,15.23
2022-12-29T13:14:38.597Z,17.73
2022-12-29T13:17:25.539Z,13.55
2022-12-29T13:20:12.452Z,18.13
2022-12-29T13:25:52.771Z,18.50
2022-12-29T13:28:42.520Z,16.70
2022-12-29T13:31:35.453Z,14.73
2022-12-29T13:34:16.020Z,14.32
2022-12-29T13:37:03.518Z,13.30
2022-12-29T13:39:44.778Z,14.80
2022-12-29T13:42:14.158Z,18.60
2022-12-29T13:44:45.438Z,15.20
2022-12-29T13:47:32.748Z,14.40
2022-12-29T13:50:05.012Z,16.70
2022-12-29T13:53:02.434Z,13.55
2022-12-29T13:55:51.279Z,12.73
2022-12-29T13:58:28.501Z,14.88
2022-12-29T14:01:44.784Z,15.50
2022-12-29T14:04:16.205Z,17.15
2022-12-29T14:06:48.032Z,16.67
2022-12-29T14:12:32.379Z,18.02
2022-12-29T14:15:13.077Z,15.20
2022-12-29T14:18:04.446Z,14.50
2022-12-29T14:20:33.587Z,15.60
2022-12-29T14:23:17.224Z,16.80
2022-12-29T14:26:07.025Z,18.30
2022-12-29T14:28:38.462Z,19.52
2022-12-29T14:31:19.130Z,14.98
2022-12-29T14:34:10.329Z,17.08
2022-12-29T14:36:43.192Z,12.90
2022-12-29T14:39:41.309Z,14.90
2022-12-29T14:42:12.477Z,14.98
2022-12-29T14:45:22.053Z,15.20
2022-12-29T14:47:54.640Z,14.00
2022-12-29T14:50:37.837Z,10.35
2022-12-29T14:53:08.082Z,14.27
2022-12-29T14:55:46.906Z,12.50
2022-12-29T14:58:43.151Z,13.15
2022-12-29T15:01:44.477Z,15.82
2022-12-29T15:04:41.243Z,61.37
2022-12-29T15:07:12.044Z,44.53
2022-12-29T15:09:45.960Z,31.65
2022-12-29T15:12:23.620Z,29.63
2022-12-29T15:14:57.356Z,125.63
2022-12-29T15:17:32.889Z,73.50
2022-12-29T15:20:18.566Z,70.13
2022-12-29T15:22:49.728Z,114.82
2022-12-29T15:25:19.491Z,63.72
2022-12-29T15:27:55.230Z,46.70
2022-12-29T15:30:23.553Z,62.10
2022-12-29T15:32:52.110Z,35.50
2022-12-29T15:35:39.522Z,19.00
2022-12-29T15:38:28.102Z,15.93
2022-12-29T15:41:07.259Z,14.20
2022-12-29T15:43:52.185Z,26.98
2022-12-29T15:46:20.830Z,34.97
2022-12-29T15:48:49.365Z,52.47
2022-12-29T15:51:39.915Z,25.63
2022-12-29T15:54:18.962Z,76.68
2022-12-29T15:56:47.794Z,49.53
2022-12-29T15:59:35.516Z,25.23
2022-12-29T16:02:10.091Z,64.65
2022-12-29T16:05:01.506Z,64.20
2022-12-29T16:07:40.844Z,20.33
2022-12-29T16:10:27.278Z,16.38
2022-12-29T16:12:55.712Z,22.70
2022-12-29T16:15:24.045Z,22.80
2022-12-29T16:17:54.231Z,21.83
2022-12-29T16:20:26.677Z,28.45
2022-12-29T16:23:00.341Z,29.25
2022-12-29T16:25:36.800Z,58.42
2022-12-29T16:28:21.567Z,54.85
2022-12-29T16:31:00.858Z,38.10
2022-12-29T16:33:56.290Z,42.20
2022-12-29T16:36:53.549Z,65.38
2022-12-29T16:39:37.817Z,50.90
2022-12-29T16:42:52.519Z,16.52
2022-12-29T16:45:21.048Z,14.20
2022-12-29T16:48:09.455Z,15.07
2022-12-29T16:50:39.981Z,39.38
2022-12-29T16:53:27.384Z,23.92
2022-12-29T16:55:58.960Z,22.88
2022-12-29T16:58:30.098Z,26.27
2022-12-29T17:01:04.496Z,18.10
2022-12-29T17:03:45.335Z,24.08
2022-12-29T17:06:18.522Z,22.30
2022-12-29T17:08:48.168Z,20.58
2022-12-29T17:11:28.457Z,30.33
2022-12-29T17:13:56.847Z,31.77
2022-12-29T17:16:25.109Z,29.55
2022-12-29T17:18:53.429Z,17.63
2022-12-29T17:21:21.647Z,15.90
2022-12-29T17:23:49.891Z,20.85
2022-12-29T17:26:18.263Z,25.77
2022-12-29T17:28:47.638Z,15.23
2022-12-29T17:31:16.117Z,15.80
2022-12-29T17:33:45.254Z,18.88
2022-12-29T17:36:13.572Z,38.38
2022-12-29T17:38:41.763Z,22.17
2022-12-29T17:41:16.789Z,21.95
2022-12-29T17:43:44.964Z,18.23
2022-12-29T17:46:13.396Z,17.55
2022-12-29T17:48:41.629Z,15.75
2022-12-29T17:51:11.547Z,18.13
2022-12-29T17:53:39.884Z,18.75
2022-12-29T17:56:08.184Z,18.55
2022-12-29T17:58:36.502Z,19.15
2022-12-29T18:01:05.486Z,30.30
2022-12-29T18:03:36.167Z,55.72
2022-12-29T18:06:06.507Z,47.25
2022-12-29T18:08:39.306Z,39.35
2022-12-29T18:11:25.301Z,26.15
2022-12-29T18:13:54.908Z,34.50
2022-12-29T18:16:23.982Z,37.00
2022-12-29T18:18:52.165Z,23.83
2022-12-29T18:21:23.276Z,20.30
2022-12-29T18:23:51.898Z,17.17
2022-12-29T18:26:27.903Z,20.88
2022-12-29T18:28:57.679Z,26.13
2022-12-29T18:31:28.755Z,26.98
2022-12-29T18:33:59.754Z,28.95
2022-12-29T18:36:31.719Z,30.33
2022-12-29T18:39:00.139Z,33.65
2022-12-29T18:41:29.874Z,33.00
2022-12-29T18:43:59.575Z,31.80
2022-12-29T18:46:28.036Z,28.90
2022-12-29T18:48:56.329Z,33.10
2022-12-29T18:51:26.164Z,31.40
2022-12-29T18:53:54.773Z,32.90
2022-12-29T18:56:24.468Z,32.13
2022-12-29T18:58:53.137Z,30.63
2022-12-29T19:01:22.941Z,35.10
2022-12-29T19:03:51.697Z,41.83
2022-12-29T19:06:20.546Z,44.25
2022-12-29T19:08:49.163Z,49.45
2022-12-29T19:11:17.444Z,55.15
2022-12-29T19:13:45.821Z,62.30
2022-12-29T19:16:20.161Z,90.03
2022-12-29T19:19:05.893Z,101.00
2022-12-29T19:21:37.993Z,102.78
2022-12-29T19:24:07.419Z,87.50
2022-12-29T19:26:39.683Z,72.57
2022-12-29T19:29:15.852Z,59.90
2022-12-29T19:31:44.527Z,62.80
2022-12-29T19:34:17.291Z,85.28
2022-12-29T19:36:46.306Z,109.57
2022-12-29T19:39:14.671Z,98.35
2022-12-29T19:41:42.858Z,115.50
2022-12-29T19:44:11.284Z,138.35
2022-12-29T19:46:39.481Z,99.57
2022-12-29T19:49:07.828Z,73.00
2022-12-29T19:51:35.984Z,57.53
2022-12-29T19:54:04.359Z,70.47
2022-12-29T19:56:32.466Z,105.68
2022-12-29T19:59:00.854Z,57.50
2022-12-29T20:01:29.074Z,53.75
2022-12-29T20:03:57.386Z,51.03
2022-12-29T20:06:25.738Z,33.45
2022-12-29T20:08:56.117Z,36.55
2022-12-29T20:11:24.348Z,38.42
2022-12-29T20:13:52.578Z,37.10
2022-12-29T20:16:21.563Z,34.83
2022-12-29T20:18:50.176Z,36.05
2022-12-29T20:21:21.782Z,35.10
2022-12-29T20:23:51.781Z,44.85
2022-12-29T20:26:28.965Z,50.60
2022-12-29T20:28:57.269Z,107.57
2022-12-29T20:31:33.267Z,104.50
2022-12-29T20:34:01.579Z,72.50
2022-12-29T20:36:35.464Z,45.80
2022-12-29T20:39:07.683Z,45.00
2022-12-29T20:41:36.675Z,59.38
2022-12-29T20:44:05.010Z,44.70
2022-12-29T20:46:43.036Z,37.10
2022-12-29T20:49:12.144Z,34.67
2022-12-29T20:52:04.901Z,30.88
2022-12-29T20:54:31.701Z,24.48
2022-12-29T20:57:02.440Z,22.65
2022-12-29T20:59:30.830Z,33.88
2022-12-29T21:01:59.384Z,35.90
2022-12-29T21:04:29.729Z,35.97
2022-12-29T21:07:06.993Z,36.25
2022-12-29T21:09:35.281Z,27.45
2022-12-29T21:12:03.387Z,33.85
2022-12-29T21:14:31.990Z,35.22
2022-12-29T21:17:00.171Z,36.45
2022-12-29T21:19:28.573Z,46.60
2022-12-29T21:21:56.673Z,30.88
2022-12-29T21:24:25.010Z,34.40
2022-12-29T21:26:53.333Z,32.60
2022-12-29T21:29:21.628Z,33.97
2022-12-29T21:31:49.792Z,30.65
2022-12-29T21:34:18.259Z,31.88
2022-12-29T21:36:46.612Z,42.85
2022-12-29T21:39:14.965Z,39.50
2022-12-29T21:41:43.436Z,32.42
2022-12-29T21:44:11.820Z,27.38
2022-12-29T21:46:41.646Z,28.02
2022-12-29T21:49:10.040Z,24.95
2022-12-29T21:51:38.371Z,28.08
2022-12-29T21:54:06.657Z,28.70
2022-12-29T21:56:36.547Z,30.90
2022-12-29T21:59:04.981Z,35.65
2022-12-29T22:01:36.133Z,30.85
2022-12-29T22:04:04.582Z,33.97
2022-12-29T22:06:33.168Z,36.20
2022-12-29T22:09:02.976Z,32.40
2022-12-29T22:11:31.321Z,67.47
2022-12-29T22:14:00.619Z,62.35
2022-12-29T22:16:29.002Z,49.38
2022-12-29T22:18:57.462Z,39.47
2022-12-29T22:21:25.840Z,38.72
2022-12-29T22:23:54.106Z,33.15
2022-12-29T22:26:22.419Z,33.13
2022-12-29T22:28:50.880Z,28.23
2022-12-29T22:31:28.104Z,24.30
2022-12-29T22:33:58.847Z,23.08
2022-12-29T22:36:28.384Z,22.92
2022-12-29T22:38:57.911Z,22.08
2022-12-29T22:41:26.353Z,21.58
2022-12-29T22:43:55.360Z,19.20
2022-12-29T22:46:23.802Z,22.02
2022-12-29T22:48:52.266Z,19.35
2022-12-29T22:51:21.728Z,20.10
2022-12-29T22:53:53.241Z,25.45
2022-12-29T22:56:21.482Z,27.20
2022-12-29T22:58:50.950Z,24.42
2022-12-29T23:01:21.001Z,27.77
2022-12-29T23:03:50.049Z,24.25
2022-12-29T23:06:18.524Z,26.67
2022-12-29T23:08:47.049Z,27.48
2022-12-29T23:11:15.271Z,26.98
2022-12-29T23:13:43.649Z,28.08
2022-12-29T23:16:12.128Z,29.02
2022-12-29T23:18:40.541Z,26.63
2022-12-29T23:21:09.395Z,24.75
2022-12-29T23:23:41.826Z,25.02
2022-12-29T23:26:14.655Z,25.42
2022-12-29T23:28:44.484Z,35.30
2022-12-29T23:31:13.035Z,37.88
2022-12-29T23:33:41.400Z,33.65
2022-12-29T23:36:10.063Z,27.85
2022-12-29T23:38:38.215Z,47.88
2022-12-29T23:41:06.705Z,82.10
2022-12-29T23:43:35.622Z,103.35
2022-12-29T23:46:12.026Z,74.00
2022-12-29T23:48:40.936Z,38.80
2022-12-29T23:51:09.918Z,32.42
2022-12-29T23:53:40.896Z,34.25
2022-12-29T23:56:13.132Z,32.17
